sensor_id;sensor_type;location;lat;lon;timestamp;pressure;altitude;pressure_sealevel;temperature;humidity
39789;BME280;25478;42.626;23.320;2023-02-19T00:00:56;93368.84;;;5.75;61.24
39789;BME280;25478;42.626;23.320;2023-02-19T00:03:21;93361.22;;;5.70;61.21
39789;BME280;25478;42.626;23.320;2023-02-19T00:05:47;93370.59;;;5.71;60.53
39789;BME280;25478;42.626;23.320;2023-02-19T00:08:12;93353.13;;;5.59;61.05
39789;BME280;25478;42.626;23.320;2023-02-19T00:10:38;93376.06;;;5.65;60.75
39789;BME280;25478;42.626;23.320;2023-02-19T00:13:03;93364.25;;;5.72;60.92
39789;BME280;25478;42.626;23.320;2023-02-19T00:15:31;93366.63;;;5.77;60.91
39789;BME280;25478;42.626;23.320;2023-02-19T00:17:57;93372.53;;;5.74;61.27
39789;BME280;25478;42.626;23.320;2023-02-19T00:20:23;93362.00;;;5.70;61.48
39789;BME280;25478;42.626;23.320;2023-02-19T00:22:49;93361.16;;;5.66;61.57
39789;BME280;25478;42.626;23.320;2023-02-19T00:25:14;93352.91;;;5.64;61.45
39789;BME280;25478;42.626;23.320;2023-02-19T00:27:40;93354.31;;;5.61;61.11
39789;BME280;25478;42.626;23.320;2023-02-19T00:30:06;93331.38;;;5.55;62.21
39789;BME280;25478;42.626;23.320;2023-02-19T00:32:31;93347.84;;;5.55;61.66
39789;BME280;25478;42.626;23.320;2023-02-19T00:34:59;93339.47;;;5.50;61.71
39789;BME280;25478;42.626;23.320;2023-02-19T00:37:25;93345.28;;;5.43;62.47
39789;BME280;25478;42.626;23.320;2023-02-19T00:39:50;93336.91;;;5.37;62.76
39789;BME280;25478;42.626;23.320;2023-02-19T00:42:16;93337.94;;;5.33;63.31
39789;BME280;25478;42.626;23.320;2023-02-19T00:44:41;93331.75;;;5.25;62.83
39789;BME280;25478;42.626;23.320;2023-02-19T00:47:06;93349.94;;;5.22;63.90
39789;BME280;25478;42.626;23.320;2023-02-19T00:49:32;93353.88;;;5.16;63.92
39789;BME280;25478;42.626;23.320;2023-02-19T00:51:57;93336.19;;;5.09;64.16
39789;BME280;25478;42.626;23.320;2023-02-19T00:54:23;93324.16;;;4.92;64.39
39789;BME280;25478;42.626;23.320;2023-02-19T00:56:49;93332.53;;;4.98;64.32
39789;BME280;25478;42.626;23.320;2023-02-19T00:59:15;93331.50;;;5.15;63.92
39789;BME280;25478;42.626;23.320;2023-02-19T01:01:41;93319.69;;;5.21;63.97
39789;BME280;25478;42.626;23.320;2023-02-19T01:04:09;93329.50;;;5.24;63.85
39789;BME280;25478;42.626;23.320;2023-02-19T01:06:35;93334.38;;;5.25;64.02
39789;BME280;25478;42.626;23.320;2023-02-19T01:09:02;93320.56;;;5.25;63.60
39789;BME280;25478;42.626;23.320;2023-02-19T01:11:28;93323.84;;;5.22;64.12
39789;BME280;25478;42.626;23.320;2023-02-19T01:13:58;93311.97;;;5.24;64.37
39789;BME280;25478;42.626;23.320;2023-02-19T01:16:24;93295.72;;;5.15;63.99
39789;BME280;25478;42.626;23.320;2023-02-19T01:18:52;93292.03;;;5.32;63.61
39789;BME280;25478;42.626;23.320;2023-02-19T01:21:21;93300.38;;;5.53;63.29
39789;BME280;25478;42.626;23.320;2023-02-19T01:23:48;93289.13;;;5.65;62.71
39789;BME280;25478;42.626;23.320;2023-02-19T01:26:17;93290.63;;;5.66;61.57
39789;BME280;25478;42.626;23.320;2023-02-19T01:28:45;93317.09;;;5.64;61.72
39789;BME280;25478;42.626;23.320;2023-02-19T01:31:15;93314.03;;;5.62;61.96
39789;BME280;25478;42.626;23.320;2023-02-19T01:33:45;93329.97;;;5.57;61.74
39789;BME280;25478;42.626;23.320;2023-02-19T01:36:11;93348.50;;;5.52;62.06
39789;BME280;25478;42.626;23.320;2023-02-19T01:38:37;93353.97;;;5.47;61.94
39789;BME280;25478;42.626;23.320;2023-02-19T01:41:05;93353.44;;;5.42;62.17
39789;BME280;25478;42.626;23.320;2023-02-19T01:43:33;93370.00;;;5.33;63.04
39789;BME280;25478;42.626;23.320;2023-02-19T01:45:59;93357.63;;;5.30;62.92
39789;BME280;25478;42.626;23.320;2023-02-19T01:48:37;93361.31;;;5.29;62.88
39789;BME280;25478;42.626;23.320;2023-02-19T01:51:13;93358.09;;;5.20;62.55
39789;BME280;25478;42.626;23.320;2023-02-19T01:53:44;93365.13;;;5.32;62.50
39789;BME280;25478;42.626;23.320;2023-02-19T01:56:12;93384.59;;;5.34;62.32
39789;BME280;25478;42.626;23.320;2023-02-19T01:58:40;93386.22;;;5.39;62.17
39789;BME280;25478;42.626;23.320;2023-02-19T02:01:07;93393.38;;;5.42;61.79
39789;BME280;25478;42.626;23.320;2023-02-19T02:03:34;93362.44;;;5.44;61.67
39789;BME280;25478;42.626;23.320;2023-02-19T02:06:05;93352.75;;;5.45;62.37
39789;BME280;25478;42.626;23.320;2023-02-19T02:08:32;93361.69;;;5.44;61.92
39789;BME280;25478;42.626;23.320;2023-02-19T02:11:19;93318.63;;;5.37;62.45
39789;BME280;25478;42.626;23.320;2023-02-19T02:13:45;93346.72;;;5.41;62.77
39789;BME280;25478;42.626;23.320;2023-02-19T02:22:03;93352.00;;;5.44;62.65
39789;BME280;25478;42.626;23.320;2023-02-19T02:25:00;93367.94;;;5.39;62.42
39789;BME280;25478;42.626;23.320;2023-02-19T02:36:28;93353.53;;;5.17;63.19
39789;BME280;25478;42.626;23.320;2023-02-19T02:38:52;93359.72;;;4.97;63.56
39789;BME280;25478;42.626;23.320;2023-02-19T02:41:20;93353.41;;;4.98;63.58
39789;BME280;25478;42.626;23.320;2023-02-19T02:43:46;93353.09;;;4.87;63.67
39789;BME280;25478;42.626;23.320;2023-02-19T02:46:18;93359.19;;;4.91;64.69
39789;BME280;25478;42.626;23.320;2023-02-19T02:49:02;93368.84;;;4.91;64.52
39789;BME280;25478;42.626;23.320;2023-02-19T02:51:33;93369.63;;;4.91;64.17
39789;BME280;25478;42.626;23.320;2023-02-19T02:56:54;93352.78;;;4.89;64.81
39789;BME280;25478;42.626;23.320;2023-02-19T02:59:23;93346.81;;;4.88;64.54
39789;BME280;25478;42.626;23.320;2023-02-19T03:01:56;93340.03;;;4.87;64.80
39789;BME280;25478;42.626;23.320;2023-02-19T03:07:35;93350.78;;;4.98;64.69
39789;BME280;25478;42.626;23.320;2023-02-19T03:10:06;93361.44;;;5.05;64.17
39789;BME280;25478;42.626;23.320;2023-02-19T03:12:33;93361.94;;;5.11;63.91
39789;BME280;25478;42.626;23.320;2023-02-19T03:15:18;93360.09;;;5.11;63.32
39789;BME280;25478;42.626;23.320;2023-02-19T03:18:06;93364.66;;;5.14;63.72
39789;BME280;25478;42.626;23.320;2023-02-19T03:20:54;93369.13;;;5.14;63.25
39789;BME280;25478;42.626;23.320;2023-02-19T03:23:22;93367.00;;;5.19;63.64
39789;BME280;25478;42.626;23.320;2023-02-19T03:26:11;93382.78;;;5.23;63.49
39789;BME280;25478;42.626;23.320;2023-02-19T03:28:44;93392.22;;;5.27;62.92
39789;BME280;25478;42.626;23.320;2023-02-19T03:31:46;93405.28;;;5.27;63.33
39789;BME280;25478;42.626;23.320;2023-02-19T03:34:21;93407.03;;;5.23;63.39
39789;BME280;25478;42.626;23.320;2023-02-19T03:36:54;93404.22;;;5.16;63.01
39789;BME280;25478;42.626;23.320;2023-02-19T03:39:23;93403.25;;;5.08;63.53
39789;BME280;25478;42.626;23.320;2023-02-19T03:41:54;93398.94;;;5.00;64.38
39789;BME280;25478;42.626;23.320;2023-02-19T03:47:02;93402.91;;;4.82;64.46
39789;BME280;25478;42.626;23.320;2023-02-19T03:49:47;93389.31;;;4.76;64.71
39789;BME280;25478;42.626;23.320;2023-02-19T03:52:33;93403.41;;;5.00;64.19
39789;BME280;25478;42.626;23.320;2023-02-19T03:55:11;93402.91;;;5.22;63.30
39789;BME280;25478;42.626;23.320;2023-02-19T03:57:50;93405.81;;;5.33;62.77
39789;BME280;25478;42.626;23.320;2023-02-19T04:00:22;93412.72;;;5.41;62.70
39789;BME280;25478;42.626;23.320;2023-02-19T04:03:04;93398.06;;;5.36;62.56
39789;BME280;25478;42.626;23.320;2023-02-19T04:05:36;93420.22;;;5.43;62.43
39789;BME280;25478;42.626;23.320;2023-02-19T04:08:12;93423.59;;;5.43;62.48
39789;BME280;25478;42.626;23.320;2023-02-19T04:10:44;93433.84;;;5.36;62.26
39789;BME280;25478;42.626;23.320;2023-02-19T04:13:33;93430.28;;;5.28;63.04
39789;BME280;25478;42.626;23.320;2023-02-19T04:16:02;93433.59;;;5.13;63.69
39789;BME280;25478;42.626;23.320;2023-02-19T04:18:35;93427.50;;;5.09;63.56
39789;BME280;25478;42.626;23.320;2023-02-19T04:21:04;93435.88;;;5.02;63.84
39789;BME280;25478;42.626;23.320;2023-02-19T04:23:36;93432.00;;;4.96;64.65
39789;BME280;25478;42.626;23.320;2023-02-19T04:26:04;93431.03;;;4.89;64.36
39789;BME280;25478;42.626;23.320;2023-02-19T04:28:33;93422.38;;;4.72;64.80
39789;BME280;25478;42.626;23.320;2023-02-19T04:30:59;93418.66;;;4.61;64.62
39789;BME280;25478;42.626;23.320;2023-02-19T04:33:25;93442.00;;;4.70;65.23
39789;BME280;25478;42.626;23.320;2023-02-19T04:35:50;93434.75;;;4.63;65.35
39789;BME280;25478;42.626;23.320;2023-02-19T04:38:16;93446.91;;;4.59;66.13
39789;BME280;25478;42.626;23.320;2023-02-19T04:40:41;93428.69;;;4.47;65.85
39789;BME280;25478;42.626;23.320;2023-02-19T04:43:07;93428.22;;;4.45;66.09
39789;BME280;25478;42.626;23.320;2023-02-19T04:45:32;93439.00;;;4.56;65.51
39789;BME280;25478;42.626;23.320;2023-02-19T04:47:58;93442.03;;;4.58;65.75
39789;BME280;25478;42.626;23.320;2023-02-19T04:50:23;93441.28;;;4.57;65.71
39789;BME280;25478;42.626;23.320;2023-02-19T04:52:49;93438.34;;;4.59;65.77
39789;BME280;25478;42.626;23.320;2023-02-19T04:55:15;93440.50;;;4.57;65.57
39789;BME280;25478;42.626;23.320;2023-02-19T04:57:41;93444.88;;;4.65;65.76
39789;BME280;25478;42.626;23.320;2023-02-19T05:00:07;93438.56;;;4.66;65.30
39789;BME280;25478;42.626;23.320;2023-02-19T05:02:33;93451.38;;;4.71;65.19
39789;BME280;25478;42.626;23.320;2023-02-19T05:04:59;93448.13;;;4.74;65.51
39789;BME280;25478;42.626;23.320;2023-02-19T05:07:25;93450.81;;;4.90;66.15
39789;BME280;25478;42.626;23.320;2023-02-19T05:09:50;93450.06;;;5.29;65.56
39789;BME280;25478;42.626;23.320;2023-02-19T05:12:15;93446.03;;;5.88;64.06
39789;BME280;25478;42.626;23.320;2023-02-19T05:14:43;93434.03;;;6.46;62.55
39789;BME280;25478;42.626;23.320;2023-02-19T05:17:08;93451.81;;;6.88;61.68
39789;BME280;25478;42.626;23.320;2023-02-19T05:19:34;93438.94;;;7.15;60.58
39789;BME280;25478;42.626;23.320;2023-02-19T05:21:59;93455.41;;;7.34;59.95
39789;BME280;25478;42.626;23.320;2023-02-19T05:24:25;93433.16;;;7.44;59.36
39789;BME280;25478;42.626;23.320;2023-02-19T05:26:51;93449.41;;;7.73;58.64
39789;BME280;25478;42.626;23.320;2023-02-19T05:29:17;93454.44;;;8.01;57.51
39789;BME280;25478;42.626;23.320;2023-02-19T05:31:42;93456.19;;;8.16;57.98
39789;BME280;25478;42.626;23.320;2023-02-19T05:34:08;93461.97;;;8.25;57.38
39789;BME280;25478;42.626;23.320;2023-02-19T05:36:33;93454.19;;;8.32;56.68
39789;BME280;25478;42.626;23.320;2023-02-19T05:39:01;93455.88;;;8.40;56.27
39789;BME280;25478;42.626;23.320;2023-02-19T05:41:28;93465.69;;;8.43;55.94
39789;BME280;25478;42.626;23.320;2023-02-19T05:43:56;93468.34;;;8.47;55.63
39789;BME280;25478;42.626;23.320;2023-02-19T05:46:24;93472.22;;;8.53;55.53
39789;BME280;25478;42.626;23.320;2023-02-19T05:48:51;93474.88;;;8.57;55.26
39789;BME280;25478;42.626;23.320;2023-02-19T05:51:19;93462.97;;;8.63;55.32
39789;BME280;25478;42.626;23.320;2023-02-19T05:53:46;93466.06;;;8.68;55.13
39789;BME280;25478;42.626;23.320;2023-02-19T05:56:31;93460.94;;;8.76;55.33
39789;BME280;25478;42.626;23.320;2023-02-19T05:58:58;93468.16;;;8.82;54.51
39789;BME280;25478;42.626;23.320;2023-02-19T06:01:26;93480.69;;;8.92;54.28
39789;BME280;25478;42.626;23.320;2023-02-19T06:03:53;93478.63;;;9.05;53.68
39789;BME280;25478;42.626;23.320;2023-02-19T06:06:19;93479.50;;;9.16;53.16
39789;BME280;25478;42.626;23.320;2023-02-19T06:08:45;93491.69;;;9.28;52.41
39789;BME280;25478;42.626;23.320;2023-02-19T06:11:12;93501.94;;;9.37;52.32
39789;BME280;25478;42.626;23.320;2023-02-19T06:13:37;93503.56;;;9.45;52.19
39789;BME280;25478;42.626;23.320;2023-02-19T06:16:04;93488.53;;;9.42;51.85
39789;BME280;25478;42.626;23.320;2023-02-19T06:18:29;93507.41;;;9.51;51.69
39789;BME280;25478;42.626;23.320;2023-02-19T06:21:00;93506.69;;;9.54;51.76
39789;BME280;25478;42.626;23.320;2023-02-19T06:23:27;93511.53;;;9.52;51.71
39789;BME280;25478;42.626;23.320;2023-02-19T06:25:53;93514.56;;;9.54;51.68
39789;BME280;25478;42.626;23.320;2023-02-19T06:28:18;93479.31;;;9.28;51.52
39789;BME280;25478;42.626;23.320;2023-02-19T06:30:44;93511.13;;;9.50;51.72
39789;BME280;25478;42.626;23.320;2023-02-19T06:33:09;93515.22;;;9.47;51.67
39789;BME280;25478;42.626;23.320;2023-02-19T06:35:35;93512.97;;;9.46;51.91
39789;BME280;25478;42.626;23.320;2023-02-19T06:38:00;93511.84;;;9.47;51.49
39789;BME280;25478;42.626;23.320;2023-02-19T06:40:27;93514.88;;;9.49;51.72
39789;BME280;25478;42.626;23.320;2023-02-19T06:42:53;93519.06;;;9.53;51.33
39789;BME280;25478;42.626;23.320;2023-02-19T06:45:19;93505.97;;;9.57;51.17
39789;BME280;25478;42.626;23.320;2023-02-19T06:47:44;93514.31;;;9.63;51.48
39789;BME280;25478;42.626;23.320;2023-02-19T06:50:10;93519.28;;;9.71;51.07
39789;BME280;25478;42.626;23.320;2023-02-19T06:52:35;93520.91;;;9.79;50.91
39789;BME280;25478;42.626;23.320;2023-02-19T06:55:01;93514.97;;;9.86;50.42
39789;BME280;25478;42.626;23.320;2023-02-19T06:57:26;93519.50;;;9.89;50.39
39789;BME280;25478;42.626;23.320;2023-02-19T06:59:52;93523.72;;;9.94;50.39
39789;BME280;25478;42.626;23.320;2023-02-19T07:02:17;93521.84;;;9.98;50.80
39789;BME280;25478;42.626;23.320;2023-02-19T07:04:42;93516.50;;;9.91;50.46
39789;BME280;25478;42.626;23.320;2023-02-19T07:07:10;93520.38;;;10.00;50.39
39789;BME280;25478;42.626;23.320;2023-02-19T07:09:36;93518.94;;;10.03;50.11
39789;BME280;25478;42.626;23.320;2023-02-19T07:12:01;93522.41;;;10.10;49.72
39789;BME280;25478;42.626;23.320;2023-02-19T07:14:27;93516.03;;;10.15;49.67
39789;BME280;25478;42.626;23.320;2023-02-19T07:16:54;93521.75;;;10.21;49.29
39789;BME280;25478;42.626;23.320;2023-02-19T07:19:19;93519.94;;;10.25;49.11
39789;BME280;25478;42.626;23.320;2023-02-19T07:21:45;93518.09;;;10.29;49.45
39789;BME280;25478;42.626;23.320;2023-02-19T07:24:10;93518.94;;;10.36;49.73
39789;BME280;25478;42.626;23.320;2023-02-19T07:26:36;93518.66;;;10.49;49.56
39789;BME280;25478;42.626;23.320;2023-02-19T07:29:02;93511.22;;;10.54;49.12
39789;BME280;25478;42.626;23.320;2023-02-19T07:31:28;93505.19;;;10.54;48.99
39789;BME280;25478;42.626;23.320;2023-02-19T07:33:54;93505.91;;;10.51;48.60
39789;BME280;25478;42.626;23.320;2023-02-19T07:36:21;93503.31;;;10.54;48.94
39789;BME280;25478;42.626;23.320;2023-02-19T07:38:52;93504.84;;;10.59;48.91
39789;BME280;25478;42.626;23.320;2023-02-19T07:41:19;93499.56;;;10.59;48.82
39789;BME280;25478;42.626;23.320;2023-02-19T07:43:46;93502.25;;;10.62;48.49
39789;BME280;25478;42.626;23.320;2023-02-19T07:46:12;93492.13;;;10.64;48.19
39789;BME280;25478;42.626;23.320;2023-02-19T07:48:40;93490.22;;;10.61;48.18
39789;BME280;25478;42.626;23.320;2023-02-19T07:51:09;93501.88;;;10.64;48.05
39789;BME280;25478;42.626;23.320;2023-02-19T07:53:35;93502.66;;;10.64;48.31
39789;BME280;25478;42.626;23.320;2023-02-19T07:56:06;93487.59;;;10.65;48.12
39789;BME280;25478;42.626;23.320;2023-02-19T07:58:32;93502.09;;;10.85;48.03
39789;BME280;25478;42.626;23.320;2023-02-19T08:01:15;93491.94;;;10.91;48.04
39789;BME280;25478;42.626;23.320;2023-02-19T08:03:42;93487.22;;;11.11;47.78
39789;BME280;25478;42.626;23.320;2023-02-19T08:06:09;93466.84;;;11.04;48.06
39789;BME280;25478;42.626;23.320;2023-02-19T08:08:36;93472.97;;;11.26;47.76
39789;BME280;25478;42.626;23.320;2023-02-19T08:11:03;93481.03;;;11.47;47.98
39789;BME280;25478;42.626;23.320;2023-02-19T08:13:49;93478.50;;;11.69;47.62
39789;BME280;25478;42.626;23.320;2023-02-19T08:16:15;93469.47;;;11.77;47.46
39789;BME280;25478;42.626;23.320;2023-02-19T08:18:42;93475.97;;;11.94;47.18
39789;BME280;25478;42.626;23.320;2023-02-19T08:21:10;93452.22;;;11.94;47.19
39789;BME280;25478;42.626;23.320;2023-02-19T08:23:36;93473.41;;;12.19;46.60
39789;BME280;25478;42.626;23.320;2023-02-19T08:26:02;93471.91;;;12.25;45.99
39789;BME280;25478;42.626;23.320;2023-02-19T08:28:28;93473.47;;;12.36;45.99
39789;BME280;25478;42.626;23.320;2023-02-19T08:30:59;93467.41;;;12.43;46.07
39789;BME280;25478;42.626;23.320;2023-02-19T08:33:25;93463.31;;;12.53;45.20
39789;BME280;25478;42.626;23.320;2023-02-19T08:35:50;93456.91;;;12.54;45.11
39789;BME280;25478;42.626;23.320;2023-02-19T08:38:16;93452.75;;;12.56;45.22
39789;BME280;25478;42.626;23.320;2023-02-19T08:40:42;93448.97;;;12.54;45.44
39789;BME280;25478;42.626;23.320;2023-02-19T08:43:10;93447.09;;;12.54;45.15
39789;BME280;25478;42.626;23.320;2023-02-19T08:45:37;93455.38;;;12.60;46.29
39789;BME280;25478;42.626;23.320;2023-02-19T08:48:03;93453.13;;;12.73;45.10
39789;BME280;25478;42.626;23.320;2023-02-19T08:50:29;93459.16;;;12.73;44.60
39789;BME280;25478;42.626;23.320;2023-02-19T08:52:54;93453.88;;;12.77;44.88
39789;BME280;25478;42.626;23.320;2023-02-19T08:55:20;93462.94;;;12.90;45.35
39789;BME280;25478;42.626;23.320;2023-02-19T08:57:46;93456.50;;;12.98;45.36
39789;BME280;25478;42.626;23.320;2023-02-19T09:00:12;93455.75;;;13.08;45.12
39789;BME280;25478;42.626;23.320;2023-02-19T09:02:37;93454.63;;;13.23;44.93
39789;BME280;25478;42.626;23.320;2023-02-19T09:05:03;93433.06;;;13.18;45.20
39789;BME280;25478;42.626;23.320;2023-02-19T09:07:30;93449.66;;;13.40;44.57
39789;BME280;25478;42.626;23.320;2023-02-19T09:09:56;93447.00;;;13.47;44.41
39789;BME280;25478;42.626;23.320;2023-02-19T09:12:23;93444.72;;;13.56;43.54
39789;BME280;25478;42.626;23.320;2023-02-19T09:14:48;93450.72;;;13.67;43.70
39789;BME280;25478;42.626;23.320;2023-02-19T09:17:14;93440.13;;;13.71;43.67
39789;BME280;25478;42.626;23.320;2023-02-19T09:19:40;93433.31;;;13.70;43.90
39789;BME280;25478;42.626;23.320;2023-02-19T09:22:05;93438.59;;;13.77;44.07
39789;BME280;25478;42.626;23.320;2023-02-19T09:24:31;93439.72;;;13.79;43.43
39789;BME280;25478;42.626;23.320;2023-02-19T09:26:57;93434.00;;;13.85;43.70
39789;BME280;25478;42.626;23.320;2023-02-19T09:29:24;93438.13;;;13.96;43.58
39789;BME280;25478;42.626;23.320;2023-02-19T09:31:50;93406.03;;;13.87;42.75
39789;BME280;25478;42.626;23.320;2023-02-19T09:34:16;93426.72;;;14.06;42.48
39789;BME280;25478;42.626;23.320;2023-02-19T09:36:41;93422.97;;;14.00;42.65
39789;BME280;25478;42.626;23.320;2023-02-19T09:39:08;93418.88;;;13.89;42.90
39789;BME280;25478;42.626;23.320;2023-02-19T09:41:42;93439.63;;;14.04;42.99
39789;BME280;25478;42.626;23.320;2023-02-19T09:44:49;93439.53;;;14.15;42.39
39789;BME280;25478;42.626;23.320;2023-02-19T09:47:17;93433.06;;;14.23;42.19
39789;BME280;25478;42.626;23.320;2023-02-19T09:49:46;93431.47;;;14.36;41.36
39789;BME280;25478;42.626;23.320;2023-02-19T09:54:45;93421.28;;;14.31;41.72
39789;BME280;25478;42.626;23.320;2023-02-19T09:57:15;93419.72;;;14.41;41.29
39789;BME280;25478;42.626;23.320;2023-02-19T09:59:45;93402.66;;;14.49;40.73
39789;BME280;25478;42.626;23.320;2023-02-19T10:02:15;93412.47;;;14.52;40.60
39789;BME280;25478;42.626;23.320;2023-02-19T10:04:43;93402.22;;;14.58;40.52
39789;BME280;25478;42.626;23.320;2023-02-19T10:07:17;93393.84;;;14.63;40.42
39789;BME280;25478;42.626;23.320;2023-02-19T10:09:51;93367.41;;;14.56;40.83
39789;BME280;25478;42.626;23.320;2023-02-19T10:12:28;93385.75;;;14.81;41.09
39789;BME280;25478;42.626;23.320;2023-02-19T10:15:00;93384.16;;;14.90;40.37
39789;BME280;25478;42.626;23.320;2023-02-19T10:17:29;93366.69;;;14.93;40.35
39789;BME280;25478;42.626;23.320;2023-02-19T10:19:56;93371.97;;;14.97;40.36
39789;BME280;25478;42.626;23.320;2023-02-19T10:22:22;93366.63;;;15.00;40.10
39789;BME280;25478;42.626;23.320;2023-02-19T10:24:51;93356.31;;;15.09;39.98
39789;BME280;25478;42.626;23.320;2023-02-19T10:27:18;93358.50;;;15.18;40.11
39789;BME280;25478;42.626;23.320;2023-02-19T10:29:45;93356.91;;;15.24;40.11
39789;BME280;25478;42.626;23.320;2023-02-19T10:32:23;93355.38;;;15.27;39.95
39789;BME280;25478;42.626;23.320;2023-02-19T10:35:19;93349.38;;;15.23;39.48
39789;BME280;25478;42.626;23.320;2023-02-19T10:37:48;93345.16;;;15.25;39.73
39789;BME280;25478;42.626;23.320;2023-02-19T10:40:20;93345.16;;;15.25;39.46
39789;BME280;25478;42.626;23.320;2023-02-19T10:42:49;93317.97;;;15.17;39.51
39789;BME280;25478;42.626;23.320;2023-02-19T10:45:33;93330.34;;;15.28;39.28
39789;BME280;25478;42.626;23.320;2023-02-19T10:47:59;93320.94;;;15.23;38.96
39789;BME280;25478;42.626;23.320;2023-02-19T10:50:30;93313.75;;;15.24;39.20
39789;BME280;25478;42.626;23.320;2023-02-19T10:52:57;93310.69;;;15.25;39.05
39789;BME280;25478;42.626;23.320;2023-02-19T10:57:51;93307.19;;;15.32;38.89
39789;BME280;25478;42.626;23.320;2023-02-19T11:00:43;93292.72;;;15.36;38.82
39789;BME280;25478;42.626;23.320;2023-02-19T11:03:20;93292.66;;;15.43;38.91
39789;BME280;25478;42.626;23.320;2023-02-19T11:06:00;93281.19;;;15.50;38.64
39789;BME280;25478;42.626;23.320;2023-02-19T11:08:27;93290.16;;;15.60;38.24
39789;BME280;25478;42.626;23.320;2023-02-19T11:10:53;93284.06;;;15.63;38.59
39789;BME280;25478;42.626;23.320;2023-02-19T11:13:28;93242.50;;;15.53;38.30
39789;BME280;25478;42.626;23.320;2023-02-19T11:16:02;93271.69;;;15.83;38.08
39789;BME280;25478;42.626;23.320;2023-02-19T11:18:31;93264.69;;;15.93;38.17
39789;BME280;25478;42.626;23.320;2023-02-19T11:21:02;93270.59;;;16.04;37.90
39789;BME280;25478;42.626;23.320;2023-02-19T11:23:44;93256.91;;;16.05;37.73
39789;BME280;25478;42.626;23.320;2023-02-19T11:26:18;93263.38;;;16.04;37.74
39789;BME280;25478;42.626;23.320;2023-02-19T11:28:45;93271.34;;;16.04;37.63
39789;BME280;25478;42.626;23.320;2023-02-19T11:36:33;93244.56;;;15.95;37.68
39789;BME280;25478;42.626;23.320;2023-02-19T11:47:04;93235.09;;;16.18;37.18
39789;BME280;25478;42.626;23.320;2023-02-19T11:52:26;93227.94;;;16.15;36.92
39789;BME280;25478;42.626;23.320;2023-02-19T11:55:34;93225.00;;;16.09;37.21
39789;BME280;25478;42.626;23.320;2023-02-19T12:00:54;93217.72;;;16.13;37.35
39789;BME280;25478;42.626;23.320;2023-02-19T12:06:36;93197.50;;;16.19;36.87
39789;BME280;25478;42.626;23.320;2023-02-19T12:15:12;93198.75;;;16.35;36.80
39789;BME280;25478;42.626;23.320;2023-02-19T12:20:33;93188.97;;;16.31;36.42
39789;BME280;25478;42.626;23.320;2023-02-19T12:23:29;93179.09;;;16.32;36.15
39789;BME280;25478;42.626;23.320;2023-02-19T12:26:29;93179.41;;;16.34;36.09
39789;BME280;25478;42.626;23.320;2023-02-19T12:29:17;93182.06;;;16.34;36.21
39789;BME280;25478;42.626;23.320;2023-02-19T12:37:28;93160.13;;;16.30;36.24
39789;BME280;25478;42.626;23.320;2023-02-19T12:43:11;93149.50;;;16.30;35.96
39789;BME280;25478;42.626;23.320;2023-02-19T12:45:48;93143.38;;;16.33;36.12
39789;BME280;25478;42.626;23.320;2023-02-19T12:50:58;93133.19;;;16.31;35.92
39789;BME280;25478;42.626;23.320;2023-02-19T12:53:47;93131.19;;;16.36;36.04
39789;BME280;25478;42.626;23.320;2023-02-19T12:56:38;93114.97;;;16.30;36.07
39789;BME280;25478;42.626;23.320;2023-02-19T13:01:51;93108.91;;;16.29;35.76
39789;BME280;25478;42.626;23.320;2023-02-19T13:05:04;93109.66;;;16.30;36.01
39789;BME280;25478;42.626;23.320;2023-02-19T13:07:33;93108.50;;;16.31;35.72
39789;BME280;25478;42.626;23.320;2023-02-19T13:12:42;93097.19;;;16.27;35.70
39789;BME280;25478;42.626;23.320;2023-02-19T13:15:20;93095.38;;;16.24;35.65
39789;BME280;25478;42.626;23.320;2023-02-19T13:17:56;93096.78;;;16.28;35.52
39789;BME280;25478;42.626;23.320;2023-02-19T13:20:29;93089.66;;;16.25;35.73
39789;BME280;25478;42.626;23.320;2023-02-19T13:23:01;93062.53;;;16.14;35.60
39789;BME280;25478;42.626;23.320;2023-02-19T13:29:04;93072.47;;;16.30;35.52
39789;BME280;25478;42.626;23.320;2023-02-19T13:36:58;93069.59;;;16.21;35.71
39789;BME280;25478;42.626;23.320;2023-02-19T13:39:24;93059.34;;;16.23;35.43
39789;BME280;25478;42.626;23.320;2023-02-19T13:41:55;93058.53;;;16.26;35.27
39789;BME280;25478;42.626;23.320;2023-02-19T13:44:25;93061.03;;;16.33;35.24
39789;BME280;25478;42.626;23.320;2023-02-19T13:46:51;93061.72;;;16.37;35.54
39789;BME280;25478;42.626;23.320;2023-02-19T13:54:30;93048.13;;;16.15;35.31
39789;BME280;25478;42.626;23.320;2023-02-19T13:59:57;93048.16;;;15.92;35.58
39789;BME280;25478;42.626;23.320;2023-02-19T14:02:25;93049.03;;;15.85;35.90
39789;BME280;25478;42.626;23.320;2023-02-19T14:04:57;93043.41;;;15.83;36.01
39789;BME280;25478;42.626;23.320;2023-02-19T14:09:49;93035.47;;;15.80;36.60
39789;BME280;25478;42.626;23.320;2023-02-19T14:25:34;93021.88;;;15.77;36.02
39789;BME280;25478;42.626;23.320;2023-02-19T14:28:05;93023.31;;;15.82;36.02
39789;BME280;25478;42.626;23.320;2023-02-19T14:30:50;93018.41;;;15.81;35.62
39789;BME280;25478;42.626;23.320;2023-02-19T14:33:19;93017.31;;;15.78;36.79
39789;BME280;25478;42.626;23.320;2023-02-19T14:35:47;92997.50;;;15.63;37.48
39789;BME280;25478;42.626;23.320;2023-02-19T14:38:41;93022.81;;;15.67;37.95
39789;BME280;25478;42.626;23.320;2023-02-19T14:41:11;92998.81;;;15.51;38.49
39789;BME280;25478;42.626;23.320;2023-02-19T14:43:39;93011.69;;;15.53;38.10
39789;BME280;25478;42.626;23.320;2023-02-19T14:46:29;93006.56;;;15.42;37.87
39789;BME280;25478;42.626;23.320;2023-02-19T14:49:00;93000.97;;;15.36;38.05
39789;BME280;25478;42.626;23.320;2023-02-19T14:53:56;92997.69;;;15.29;37.81
39789;BME280;25478;42.626;23.320;2023-02-19T14:56:25;92995.44;;;15.27;38.29
39789;BME280;25478;42.626;23.320;2023-02-19T14:59:05;92994.28;;;15.28;38.94
39789;BME280;25478;42.626;23.320;2023-02-19T15:01:31;92986.41;;;15.25;38.78